Time;durP1;ratioP1;P1;durP2;ratioP2;P2;SDS_P1;SDS_P2;PMS_P1;PMS_P2;Temp;Humidity;BMP_temperature;BMP_pressure;BME280_temperature;BME280_humidity;BME280_pressure;Samples;Min_cycle;Max_cycle;Signal;HPM_P1;HPM_P2
2022/03/31 03:33:56;;;;;;;;;;;;;;;6.38;100.00;97648.50;5627933;23;19941;-89
2022/03/31 03:36:21;;;;;;;;;;;;;;;6.36;100.00;97632.81;4953856;29;19945;-89
2022/03/31 03:38:46;;;;;;;;;;;;;;;6.37;100.00;97633.66;4962300;28;20381;-93
2022/03/31 03:41:13;;;;;;;;;;;;;;;6.39;100.00;97631.78;4948408;29;20009;-88
2022/03/31 03:43:39;;;;;;;;;;;;;;;6.40;100.00;97632.63;4947835;28;19925;-89
2022/03/31 03:46:04;;;;;;;;;;;;;;;6.41;100.00;97629.06;4948643;28;19966;-92
2022/03/31 03:48:30;;;;;;;;;;;;;;;6.42;100.00;97628.97;4947508;29;19922;-93
2022/03/31 03:50:55;;;;;;;;;;;;;;;6.41;100.00;97627.25;4947570;29;19965;-91
2022/03/31 03:53:21;;;;;;;;;;;;;;;6.43;100.00;97627.19;4946677;29;19926;-92
2022/03/31 03:55:46;;;;;;;;;;;;;;;6.44;100.00;97627.09;4948183;28;20317;-88
2022/03/31 03:58:11;;;;;;;;;;;;;;;5.10;100.00;97624.25;4947141;29;19965;-88
2022/03/31 04:00:37;;;;;;;;;;;;;;;4.17;100.00;97628.28;4947542;29;19968;-88
2022/03/31 04:03:02;;;;;;;;;;;;;;;3.94;100.00;97621.56;4944866;29;19915;-87
2022/03/31 04:05:27;;;;;;;;;;;;;;;3.62;100.00;97619.66;4947390;29;19923;-87
2022/03/31 04:07:53;;;;;;;;;;;;;;;3.69;100.00;97621.97;4947384;29;19919;-90
2022/03/31 04:10:18;;;;;;;;;;;;;;;3.57;100.00;97618.16;4946124;29;19914;-90
2022/03/31 04:12:43;;;;;;;;;;;;;;;3.38;100.00;97623.44;4947005;29;19926;-89
2022/03/31 04:15:09;;;;;;;;;;;;;;;3.30;100.00;97625.59;4946926;29;19926;-90
2022/03/31 04:17:35;;;;;;;;;;;;;;;3.25;99.91;97626.66;4946166;29;19919;-87
2022/03/31 04:20:01;;;;;;;;;;;;;;;3.04;99.54;97628.50;4947356;28;20001;-90
2022/03/31 04:22:27;;;;;;;;;;;;;;;3.09;99.55;97636.16;4947031;29;19915;-89
2022/03/31 04:24:52;;;;;;;;;;;;;;;3.04;99.16;97631.13;4947184;29;19922;-88
2022/03/31 04:27:17;;;;;;;;;;;;;;;2.97;99.14;97634.09;4947254;28;19927;-89
2022/03/31 04:29:43;;;;;;;;;;;;;;;2.85;98.50;97625.06;4946984;29;19919;-90
2022/03/31 04:32:08;;;;;;;;;;;;;;;2.81;98.42;97624.34;4946599;29;19945;-87
2022/03/31 04:34:34;;;;;;;;;;;;;;;2.80;98.17;97632.28;4946475;28;19961;-87
2022/03/31 04:36:59;;;;;;;;;;;;;;;2.82;97.79;97620.81;4946281;28;19927;-89
2022/03/31 04:39:25;;;;;;;;;;;;;;;2.71;97.49;97623.94;4946932;28;19918;-89
2022/03/31 04:41:50;;;;;;;;;;;;;;;2.75;97.07;97615.94;4947072;29;19922;-89
2022/03/31 07:45:45;;;;;;;;;;;;;;;2.51;100.00;97629.22;4939772;28;20395;-92
2022/03/31 07:48:13;;;;;;;;;;;;;;;2.48;100.00;97629.34;4948179;28;19927;-89
2022/03/31 07:50:39;;;;;;;;;;;;;;;2.54;100.00;97629.06;4954368;29;19923;-91
2022/03/31 07:53:04;;;;;;;;;;;;;;;2.57;100.00;97631.56;4948961;28;20034;-93
2022/03/31 07:55:30;;;;;;;;;;;;;;;2.56;100.00;97629.00;4953678;28;20293;-94
2022/03/31 07:57:55;;;;;;;;;;;;;;;2.53;100.00;97629.97;4947267;29;19918;-93
2022/03/31 08:00:21;;;;;;;;;;;;;;;2.55;100.00;97625.53;4948810;29;19919;-88
2022/03/31 08:02:48;;;;;;;;;;;;;;;2.54;100.00;97626.47;4945828;29;19923;-94
2022/03/31 08:05:21;;;;;;;;;;;;;;;2.62;100.00;97629.56;4941765;28;19926;-89
2022/03/31 08:07:46;;;;;;;;;;;;;;;2.63;100.00;97622.56;4930627;29;19927;-88
2022/03/31 08:10:12;;;;;;;;;;;;;;;2.68;100.00;97621.47;4935087;29;19946;-87
2022/03/31 08:12:39;;;;;;;;;;;;;;;2.68;100.00;97629.31;4936832;29;20402;-87
2022/03/31 08:15:05;;;;;;;;;;;;;;;2.68;100.00;97624.06;4930947;29;19973;-85
2022/03/31 08:17:30;;;;;;;;;;;;;;;2.69;100.00;97623.13;4937309;29;19922;-87
2022/03/31 08:19:56;;;;;;;;;;;;;;;2.71;100.00;97618.69;4943554;29;20374;-84
2022/03/31 08:22:22;;;;;;;;;;;;;;;2.72;100.00;97623.00;4941700;29;20002;-90
2022/03/31 08:24:47;;;;;;;;;;;;;;;2.73;100.00;97627.31;4938944;29;20003;-85
2022/03/31 08:27:12;;;;;;;;;;;;;;;2.82;100.00;97626.03;4938010;29;19926;-87
2022/03/31 08:29:39;;;;;;;;;;;;;;;2.83;100.00;97626.91;4939446;29;20220;-89
2022/03/31 08:32:05;;;;;;;;;;;;;;;2.86;100.00;97616.31;4941429;29;20334;-92
2022/03/31 08:34:30;;;;;;;;;;;;;;;2.88;100.00;97619.69;4946269;28;19923;-90
2022/03/31 08:36:56;;;;;;;;;;;;;;;2.91;100.00;97623.00;4943472;29;19922;-90
2022/03/31 08:39:21;;;;;;;;;;;;;;;3.02;100.00;97622.50;4945700;29;19919;-92
2022/03/31 08:41:46;;;;;;;;;;;;;;;3.05;100.00;97624.97;4948184;29;19926;-86
2022/03/31 08:44:14;;;;;;;;;;;;;;;3.06;99.97;97629.31;4945545;29;19921;-91
2022/03/31 08:46:41;;;;;;;;;;;;;;;3.09;99.53;97623.94;4949994;28;20898;-93
2022/03/31 08:49:07;;;;;;;;;;;;;;;3.14;98.74;97633.31;4945346;29;19923;-91
2022/03/31 08:51:32;;;;;;;;;;;;;;;3.13;97.82;97632.47;4943684;29;19922;-89
2022/03/31 08:53:57;;;;;;;;;;;;;;;3.17;97.02;97630.56;4946733;29;19923;-88
2022/03/31 08:56:23;;;;;;;;;;;;;;;3.21;96.25;97634.75;4944500;29;19926;-89
2022/03/31 08:58:48;;;;;;;;;;;;;;;3.22;95.50;97633.81;4944279;29;19942;-86
2022/03/31 09:01:17;;;;;;;;;;;;;;;3.22;94.48;97633.81;4944322;29;19925;-84
2022/03/31 09:03:42;;;;;;;;;;;;;;;3.30;93.86;97639.50;4946141;29;20289;-91
2022/03/31 09:06:08;;;;;;;;;;;;;;;3.30;93.13;97636.91;4948021;29;19922;-93
2022/03/31 09:08:33;;;;;;;;;;;;;;;3.35;92.58;97639.31;4944244;29;20382;-92
2022/03/31 09:11:00;;;;;;;;;;;;;;;3.36;91.76;97639.22;4946796;29;19923;-91
2022/03/31 09:13:29;;;;;;;;;;;;;;;3.37;90.81;97643.56;4942649;29;20271;-90
2022/03/31 09:16:02;;;;;;;;;;;;;;;3.41;90.31;97645.09;4959389;28;19926;-92
2022/03/31 09:18:29;;;;;;;;;;;;;;;3.41;89.70;97637.22;4943174;29;20017;-92
2022/03/31 09:20:59;;;;;;;;;;;;;;;3.48;89.32;97639.56;4945668;29;19961;-87
2022/03/31 09:23:29;;;;;;;;;;;;;;;3.54;89.22;97632.28;4944827;29;19925;-87
2022/03/31 09:26:01;;;;;;;;;;;;;;;3.86;92.41;97635.09;4944599;29;20009;-90
2022/03/31 09:28:27;;;;;;;;;;;;;;;4.12;96.65;97625.91;4942986;29;19918;-89
2022/03/31 09:30:54;;;;;;;;;;;;;;;4.04;98.29;97630.69;4943845;29;20417;-91
2022/03/31 09:33:48;;;;;;;;;;;;;;;3.98;98.71;97631.81;4960673;28;19965;-88
2022/03/31 09:36:13;;;;;;;;;;;;;;;3.91;99.11;97638.31;4930556;29;20378;-90
2022/03/31 09:38:39;;;;;;;;;;;;;;;3.90;99.17;97636.59;4944490;29;19918;-90
2022/03/31 09:41:16;;;;;;;;;;;;;;;3.85;98.94;97633.38;4944803;29;19986;-91
2022/03/31 09:43:42;;;;;;;;;;;;;;;3.89;98.87;97636.69;4942902;29;20037;-88
2022/03/31 09:46:37;;;;;;;;;;;;;;;3.88;98.84;97633.22;4944153;29;20445;-86
2022/03/31 09:49:21;;;;;;;;;;;;;;;3.88;98.76;97632.34;4942065;29;19923;-89
2022/03/31 09:51:48;;;;;;;;;;;;;;;3.92;98.74;97628.69;4944960;29;19918;-88
2022/03/31 09:54:14;;;;;;;;;;;;;;;3.91;98.45;97627.84;4944262;29;20289;-88
2022/03/31 09:56:40;;;;;;;;;;;;;;;3.91;98.28;97629.59;4945613;28;19918;-88
2022/03/31 09:59:07;;;;;;;;;;;;;;;3.91;97.84;97624.34;4944340;28;20424;-87
2022/03/31 10:01:32;;;;;;;;;;;;;;;3.88;97.46;97627.13;4943239;29;20358;-89
2022/03/31 10:03:58;;;;;;;;;;;;;;;3.91;97.26;97626.97;4943752;29;20327;-87
2022/03/31 10:06:24;;;;;;;;;;;;;;;3.94;97.24;97626.81;4944740;29;19965;-87
2022/03/31 10:08:50;;;;;;;;;;;;;;;3.95;97.26;97618.88;4944969;29;19919;-87
2022/03/31 10:11:17;;;;;;;;;;;;;;;3.93;96.87;97617.28;4945052;29;19919;-89
2022/03/31 10:13:48;;;;;;;;;;;;;;;3.96;96.88;97615.34;4954689;28;20290;-86
2022/03/31 10:16:16;;;;;;;;;;;;;;;3.98;96.67;97623.13;4945095;29;19933;-88
2022/03/31 10:18:49;;;;;;;;;;;;;;;4.02;96.51;97619.44;4943235;29;21509;-89
2022/03/31 10:21:25;;;;;;;;;;;;;;;4.07;96.53;97617.44;4943344;29;19973;-89
2022/03/31 10:26:36;;;;;;;;;;;;;;;4.09;96.10;97618.19;4944136;29;19925;-88
2022/03/31 10:29:09;;;;;;;;;;;;;;;4.10;95.86;97617.28;4941691;29;20315;-89
2022/03/31 10:31:35;;;;;;;;;;;;;;;4.11;95.85;97620.72;4943384;29;19919;-87
2022/03/31 10:34:02;;;;;;;;;;;;;;;4.18;95.78;97603.78;4958664;28;20426;-90
2022/03/31 10:36:35;;;;;;;;;;;;;;;4.18;95.60;97604.63;4944659;29;19949;-88
2022/03/31 10:39:02;;;;;;;;;;;;;;;4.18;95.24;97616.88;4944129;29;20386;-88
2022/03/31 10:41:32;;;;;;;;;;;;;;;4.19;94.97;97614.16;4943352;29;19926;-88
2022/03/31 10:43:58;;;;;;;;;;;;;;;4.23;94.98;97616.63;4941888;28;19930;-88
2022/03/31 10:46:24;;;;;;;;;;;;;;;4.23;94.73;97608.75;4943121;29;20385;-88
2022/03/31 10:48:51;;;;;;;;;;;;;;;4.25;94.53;97599.06;4943025;29;19922;-88
2022/03/31 10:51:19;;;;;;;;;;;;;;;4.27;94.36;97611.13;4942776;29;20013;-85
2022/03/31 10:53:50;;;;;;;;;;;;;;;4.27;94.16;97602.44;4944561;28;19965;-89
2022/03/31 10:56:25;;;;;;;;;;;;;;;4.25;93.63;97605.13;4939102;28;19919;-88
2022/03/31 10:58:52;;;;;;;;;;;;;;;4.29;93.44;97601.44;4938769;29;19938;-87
2022/03/31 11:01:18;;;;;;;;;;;;;;;4.32;93.17;97597.78;4941107;29;20425;-86
2022/03/31 11:03:44;;;;;;;;;;;;;;;4.33;93.19;97591.63;4938911;29;19919;-87
2022/03/31 11:06:10;;;;;;;;;;;;;;;4.32;92.82;97589.94;4943358;29;20283;-87
2022/03/31 11:08:43;;;;;;;;;;;;;;;4.33;92.78;97586.38;4938994;29;19934;-87
2022/03/31 11:11:08;;;;;;;;;;;;;;;4.34;92.45;97577.56;4956142;28;19933;-89
2022/03/31 11:13:35;;;;;;;;;;;;;;;4.36;92.24;97581.00;4934504;29;19922;-87
2022/03/31 11:16:01;;;;;;;;;;;;;;;4.42;92.43;97574.56;4940918;29;19922;-89
2022/03/31 11:18:26;;;;;;;;;;;;;;;4.55;94.36;97581.69;4934053;29;20405;-90
2022/03/31 11:20:56;;;;;;;;;;;;;;;4.57;95.28;97572.91;4946193;29;20022;-94
2022/03/31 11:23:21;;;;;;;;;;;;;;;4.87;98.13;97576.47;4946283;29;19959;-96
2022/03/31 11:25:47;;;;;;;;;;;;;;;4.86;99.27;97580.03;4944867;29;19923;-96
2022/03/31 11:28:19;;;;;;;;;;;;;;;4.84;99.84;97581.06;4941351;29;19918;-93
2022/03/31 11:30:46;;;;;;;;;;;;;;;4.78;100.00;97571.72;4944140;29;19974;-92
2022/03/31 11:33:13;;;;;;;;;;;;;;;4.77;100.00;97579.69;4944091;29;19923;-92
2022/03/31 11:35:38;;;;;;;;;;;;;;;4.78;100.00;97574.34;4942894;29;19976;-92
2022/03/31 11:38:05;;;;;;;;;;;;;;;4.76;100.00;97576.22;4942703;29;20375;-92
2022/03/31 11:40:40;;;;;;;;;;;;;;;4.78;100.00;97576.13;4940196;29;19977;-91
2022/03/31 11:43:08;;;;;;;;;;;;;;;4.77;100.00;97575.31;4955608;28;19919;-93
2022/03/31 11:45:37;;;;;;;;;;;;;;;4.76;100.00;97578.84;4942749;29;19931;-92
2022/03/31 11:48:04;;;;;;;;;;;;;;;4.74;100.00;97570.22;4946149;29;20386;-93
2022/03/31 11:50:30;;;;;;;;;;;;;;;4.76;100.00;97578.84;4944280;29;19954;-92
2022/03/31 11:52:56;;;;;;;;;;;;;;;4.78;100.00;97576.97;4947076;29;19919;-92
2022/03/31 11:55:21;;;;;;;;;;;;;;;4.83;100.00;97574.09;4945786;29;19925;-92
2022/03/31 11:57:57;;;;;;;;;;;;;;;4.77;100.00;97580.56;4946843;28;20560;-90
2022/03/31 12:00:24;;;;;;;;;;;;;;;4.77;100.00;97572.69;4946928;29;19989;-92
2022/03/31 12:03:00;;;;;;;;;;;;;;;4.79;100.00;97581.31;4948248;29;19919;-92
2022/03/31 12:05:25;;;;;;;;;;;;;;;4.79;100.00;97581.31;4945869;29;19929;-92
2022/03/31 12:07:51;;;;;;;;;;;;;;;4.82;100.00;97572.41;4947588;29;20363;-89
2022/03/31 12:10:18;;;;;;;;;;;;;;;4.84;100.00;97573.19;4946065;29;19922;-89
2022/03/31 12:12:48;;;;;;;;;;;;;;;4.86;100.00;97563.44;4948490;29;20388;-90
2022/03/31 12:15:18;;;;;;;;;;;;;;;4.88;100.00;97572.06;4947106;29;19918;-89
2022/03/31 12:17:43;;;;;;;;;;;;;;;4.90;100.00;97570.22;4947588;29;20838;-91
2022/03/31 12:20:12;;;;;;;;;;;;;;;4.87;100.00;97570.41;4945229;29;19929;-90
2022/03/31 12:22:37;;;;;;;;;;;;;;;4.90;100.00;97571.06;4946731;29;20382;-92
2022/03/31 12:25:03;;;;;;;;;;;;;;;4.88;100.00;97567.69;4945793;29;19952;-92
2022/03/31 12:27:28;;;;;;;;;;;;;;;4.90;100.00;97563.19;4946395;29;20009;-87
2022/03/31 12:29:58;;;;;;;;;;;;;;;4.90;100.00;97571.06;4947269;28;19923;-88
2022/03/31 12:32:23;;;;;;;;;;;;;;;4.92;100.00;97568.34;4946054;29;20366;-85
2022/03/31 12:34:52;;;;;;;;;;;;;;;4.93;100.00;97574.44;4946947;29;19978;-87
2022/03/31 12:37:25;;;;;;;;;;;;;;;4.95;100.00;97577.84;4946218;28;20009;-90
2022/03/31 12:39:50;;;;;;;;;;;;;;;4.93;100.00;97569.19;4946018;29;20013;-89
2022/03/31 12:42:16;;;;;;;;;;;;;;;4.93;100.00;97577.94;4945593;29;20026;-86
2022/03/31 12:44:42;;;;;;;;;;;;;;;4.94;99.98;97578.78;4946778;28;19922;-89
2022/03/31 12:47:08;;;;;;;;;;;;;;;4.96;100.00;97574.28;4946888;29;20020;-90
2022/03/31 12:49:34;;;;;;;;;;;;;;;4.95;99.95;97577.84;4945681;29;19911;-82
2022/03/31 12:52:03;;;;;;;;;;;;;;;5.04;99.96;97582.56;4946168;29;20017;-82
2022/03/31 12:54:35;;;;;;;;;;;;;;;5.13;100.00;97584.69;4946770;29;20271;-82
2022/03/31 12:57:02;;;;;;;;;;;;;;;5.17;100.00;97580.97;4945649;28;19966;-82
2022/03/31 12:59:30;;;;;;;;;;;;;;;5.18;100.00;97584.44;4946109;29;19930;-82
2022/03/31 13:01:59;;;;;;;;;;;;;;;5.16;100.00;97592.41;4945167;29;20339;-82
2022/03/31 13:04:25;;;;;;;;;;;;;;;5.08;100.00;97586.72;4945254;29;20378;-82
2022/03/31 13:06:50;;;;;;;;;;;;;;;5.02;100.00;97587.06;4946245;29;19965;-82
2022/03/31 13:09:16;;;;;;;;;;;;;;;4.89;100.00;97585.09;4946462;29;19929;-82
2022/03/31 13:11:43;;;;;;;;;;;;;;;4.73;100.00;97585.09;4944890;29;19957;-82
2022/03/31 13:14:10;;;;;;;;;;;;;;;4.56;99.69;97579.91;4944491;29;19923;-82
2022/03/31 13:16:35;;;;;;;;;;;;;;;4.42;99.09;97585.03;4938581;29;20445;-81
2022/03/31 13:19:01;;;;;;;;;;;;;;;4.29;98.83;97585.72;4945780;29;20013;-82
2022/03/31 13:21:28;;;;;;;;;;;;;;;4.21;99.59;97582.63;4945247;29;19926;-82
2022/03/31 13:23:54;;;;;;;;;;;;;;;4.25;100.00;97583.34;4944808;29;19919;-82
2022/03/31 13:26:19;;;;;;;;;;;;;;;4.39;100.00;97586.06;4944453;29;19949;-81
2022/03/31 13:28:44;;;;;;;;;;;;;;;4.58;100.00;97583.31;4945182;29;19972;-81
2022/03/31 13:31:09;;;;;;;;;;;;;;;4.87;100.00;97580.91;4944725;29;19919;-82
2022/03/31 13:33:36;;;;;;;;;;;;;;;5.04;100.00;97590.44;4944287;29;19919;-81
2022/03/31 13:36:02;;;;;;;;;;;;;;;5.17;100.00;97578.34;4945598;29;19930;-82
2022/03/31 13:38:31;;;;;;;;;;;;;;;5.25;100.00;97581.38;4958803;28;19924;-81
2022/03/31 13:40:56;;;;;;;;;;;;;;;5.30;100.00;97577.63;4945969;29;19918;-82
2022/03/31 13:43:22;;;;;;;;;;;;;;;5.35;100.00;97578.25;4944593;29;19925;-81
2022/03/31 13:45:47;;;;;;;;;;;;;;;5.39;100.00;97582.38;4943946;29;19943;-82
2022/03/31 13:48:12;;;;;;;;;;;;;;;5.40;100.00;97587.53;4945528;29;19961;-82
2022/03/31 13:50:40;;;;;;;;;;;;;;;5.43;100.00;97581.28;4944534;29;20009;-82
2022/03/31 13:55:49;;;;;;;;;;;;;;;5.51;100.00;97578.22;4946215;29;20425;-82
2022/03/31 14:01:10;;;;;;;;;;;;;;;5.56;100.00;97574.38;4945347;29;19926;-80
2022/03/31 14:03:46;;;;;;;;;;;;;;;5.61;100.00;97582.00;4944206;29;19925;-82
2022/03/31 14:06:16;;;;;;;;;;;;;;;5.60;100.00;97589.03;4944276;29;19922;-81
2022/03/31 14:08:42;;;;;;;;;;;;;;;5.62;100.00;97592.41;4942499;29;19923;-82
2022/03/31 14:11:08;;;;;;;;;;;;;;;5.63;100.00;97594.13;4944903;29;19946;-82
2022/03/31 14:13:34;;;;;;;;;;;;;;;5.63;100.00;97588.88;4942944;29;20024;-82
2022/03/31 14:16:03;;;;;;;;;;;;;;;5.65;100.00;97586.16;4943594;29;19919;-82
2022/03/31 14:18:33;;;;;;;;;;;;;;;5.67;100.00;97588.69;4943937;29;20356;-82
2022/03/31 14:20:58;;;;;;;;;;;;;;;5.70;100.00;97588.50;4943811;29;19923;-82
2022/03/31 14:23:24;;;;;;;;;;;;;;;5.70;100.00;97584.09;4944872;29;19942;-83
2022/03/31 14:25:50;;;;;;;;;;;;;;;5.73;100.00;97583.09;4943821;29;19919;-81
2022/03/31 14:28:15;;;;;;;;;;;;;;;5.21;100.00;97585.09;4943946;29;19922;-81
2022/03/31 14:30:42;;;;;;;;;;;;;;;4.65;100.00;97592.53;4944660;29;19919;-83
2022/03/31 14:33:08;;;;;;;;;;;;;;;4.45;100.00;97590.13;4944706;29;19929;-82
2022/03/31 14:35:33;;;;;;;;;;;;;;;4.37;100.00;97593.16;4944596;29;19914;-82
2022/03/31 14:37:59;;;;;;;;;;;;;;;4.24;100.00;97589.50;4944398;29;19970;-82
2022/03/31 14:40:25;;;;;;;;;;;;;;;4.19;100.00;97582.69;4944818;29;19922;-81
2022/03/31 14:42:50;;;;;;;;;;;;;;;4.11;100.00;97586.66;4941784;29;20380;-82
2022/03/31 14:45:16;;;;;;;;;;;;;;;4.06;100.00;97586.88;4943618;29;20290;-81
2022/03/31 14:47:42;;;;;;;;;;;;;;;4.07;100.00;97591.22;4944902;29;19965;-82
2022/03/31 14:50:08;;;;;;;;;;;;;;;4.06;100.00;97583.44;4944442;28;19927;-81
2022/03/31 14:52:33;;;;;;;;;;;;;;;4.02;100.00;97581.88;4944181;29;20326;-82
2022/03/31 14:54:58;;;;;;;;;;;;;;;3.95;100.00;97597.06;4944345;29;19918;-80
2022/03/31 14:57:24;;;;;;;;;;;;;;;3.98;100.00;97599.53;4941525;29;19922;-82
2022/03/31 14:59:50;;;;;;;;;;;;;;;3.95;100.00;97597.91;4944249;29;20386;-81
2022/03/31 15:02:15;;;;;;;;;;;;;;;3.93;100.00;97601.56;4943133;29;19938;-82
2022/03/31 15:04:40;;;;;;;;;;;;;;;3.93;100.00;97604.19;4944390;29;19922;-83
2022/03/31 15:07:06;;;;;;;;;;;;;;;3.89;100.00;97605.25;4944479;29;19950;-81
2022/03/31 15:15:00;;;;;;;;;;;;;;;3.81;100.00;97611.72;4944142;29;19929;-81
2022/03/31 15:17:25;;;;;;;;;;;;;;;3.79;100.00;97602.25;4944462;29;19923;-82
2022/03/31 15:19:50;;;;;;;;;;;;;;;3.75;100.00;97612.03;4943225;28;19965;-82
2022/03/31 15:22:15;;;;;;;;;;;;;;;3.74;100.00;97610.34;4950243;29;19922;-81
2022/03/31 15:24:41;;;;;;;;;;;;;;;3.77;100.00;97615.41;4950413;28;19918;-83
2022/03/31 15:27:09;;;;;;;;;;;;;;;3.71;100.00;97620.13;4947886;28;20408;-82
2022/03/31 15:29:35;;;;;;;;;;;;;;;3.72;100.00;97622.66;4951100;29;19926;-81
2022/03/31 15:32:00;;;;;;;;;;;;;;;3.69;99.91;97614.13;4950385;28;19922;-82
2022/03/31 15:34:26;;;;;;;;;;;;;;;3.68;99.79;97615.88;4950836;29;19923;-83
2022/03/31 15:36:54;;;;;;;;;;;;;;;3.71;99.53;97618.34;4948293;29;19919;-84
2022/03/31 15:39:21;;;;;;;;;;;;;;;3.65;99.07;97616.00;4948163;28;19923;-84
2022/03/31 15:41:46;;;;;;;;;;;;;;;3.68;98.88;97623.72;4946993;28;20278;-84
2022/03/31 15:44:12;;;;;;;;;;;;;;;3.69;98.32;97620.19;4941021;28;19926;-84
2022/03/31 15:46:38;;;;;;;;;;;;;;;3.68;98.13;97615.88;4946987;28;19922;-84
2022/03/31 15:49:04;;;;;;;;;;;;;;;3.62;97.79;97622.28;4947063;29;19923;-84
2022/03/31 15:51:30;;;;;;;;;;;;;;;3.59;97.41;97616.31;4943594;28;19926;-84
2022/03/31 15:53:55;;;;;;;;;;;;;;;3.56;97.19;97621.72;4948874;28;19923;-84
2022/03/31 15:56:21;;;;;;;;;;;;;;;3.56;97.05;97622.56;4948625;29;19930;-84
2022/03/31 15:58:47;;;;;;;;;;;;;;;3.59;96.95;97626.78;4947459;29;20009;-86
2022/03/31 16:01:13;;;;;;;;;;;;;;;3.55;96.70;97628.72;4948227;28;20045;-84
2022/03/31 16:03:39;;;;;;;;;;;;;;;3.55;96.41;97630.50;4946853;29;20057;-84
2022/03/31 16:06:04;;;;;;;;;;;;;;;3.57;96.23;97623.41;4948089;29;20288;-84
2022/03/31 16:08:29;;;;;;;;;;;;;;;3.60;95.98;97633.72;4949060;29;19973;-85
2022/03/31 16:10:54;;;;;;;;;;;;;;;3.56;95.59;97635.66;4949614;29;19929;-84
2022/03/31 16:13:20;;;;;;;;;;;;;;;3.52;95.46;97636.72;4942899;28;19935;-84
2022/03/31 16:15:46;;;;;;;;;;;;;;;3.52;95.17;97641.13;4942569;29;19926;-85
2022/03/31 16:18:11;;;;;;;;;;;;;;;3.50;95.05;97640.34;4948178;29;20330;-84
2022/03/31 16:20:37;;;;;;;;;;;;;;;3.54;94.86;97632.28;4948244;28;19950;-85
2022/03/31 16:25:47;;;;;;;;;;;;;;;3.45;94.41;97637.94;4947335;28;20355;-84
2022/03/31 16:28:14;;;;;;;;;;;;;;;3.61;95.27;97635.44;4947238;28;20005;-83
2022/03/31 16:30:39;;;;;;;;;;;;;;;3.79;98.13;97642.38;4946878;29;20030;-85
2022/03/31 16:33:06;;;;;;;;;;;;;;;3.76;98.92;97642.53;4946935;28;20001;-85
2022/03/31 16:35:31;;;;;;;;;;;;;;;3.73;99.25;97639.22;4944124;29;19927;-85
2022/03/31 16:37:57;;;;;;;;;;;;;;;4.06;100.00;97648.94;4942643;29;19927;-87
2022/03/31 16:40:22;;;;;;;;;;;;;;;4.23;100.00;97648.94;4944504;29;20029;-85
2022/03/31 16:42:47;;;;;;;;;;;;;;;4.16;100.00;97651.03;4943897;29;20299;-85
2022/03/31 16:45:12;;;;;;;;;;;;;;;4.03;100.00;97646.47;4942544;28;20013;-84
2022/03/31 16:47:39;;;;;;;;;;;;;;;3.96;100.00;97654.66;4943374;29;19974;-85
2022/03/31 16:50:05;;;;;;;;;;;;;;;3.87;100.00;97656.88;4942468;29;19922;-83
2022/03/31 16:52:30;;;;;;;;;;;;;;;3.84;100.00;97649.19;4940113;29;19978;-85
2022/03/31 16:54:56;;;;;;;;;;;;;;;3.86;100.00;97657.78;4945599;29;20287;-86
2022/03/31 16:57:21;;;;;;;;;;;;;;;3.81;100.00;97658.88;4941212;29;19923;-85
2022/03/31 16:59:47;;;;;;;;;;;;;;;3.75;100.00;97664.44;4945221;29;19926;-85
2022/03/31 17:02:12;;;;;;;;;;;;;;;3.69;100.00;97669.97;4944897;29;20014;-85
2022/03/31 17:04:38;;;;;;;;;;;;;;;3.68;100.00;97672.66;4945968;29;19922;-84
2022/03/31 17:07:04;;;;;;;;;;;;;;;3.68;100.00;97677.88;4945399;28;19930;-84
2022/03/31 17:09:32;;;;;;;;;;;;;;;3.61;100.00;97675.56;4945459;29;20301;-86
2022/03/31 17:11:58;;;;;;;;;;;;;;;3.56;100.00;97681.97;4944602;28;19930;-86
2022/03/31 17:14:23;;;;;;;;;;;;;;;3.63;100.00;97683.34;4943795;29;19969;-86
2022/03/31 17:16:49;;;;;;;;;;;;;;;3.60;100.00;97697.44;4943944;29;19985;-84
2022/03/31 17:19:14;;;;;;;;;;;;;;;3.57;100.00;97687.09;4944603;29;20405;-85
2022/03/31 17:21:39;;;;;;;;;;;;;;;3.58;100.00;97698.44;4943584;29;20009;-85
2022/03/31 17:24:04;;;;;;;;;;;;;;;3.56;100.00;97697.69;4946386;29;19934;-85
2022/03/31 17:26:30;;;;;;;;;;;;;;;3.58;100.00;97703.69;4942983;28;19929;-86
2022/03/31 17:28:55;;;;;;;;;;;;;;;3.53;100.00;97708.28;4943928;29;19933;-82
2022/03/31 17:31:20;;;;;;;;;;;;;;;3.56;100.00;97705.53;4943808;28;19930;-82
2022/03/31 17:33:46;;;;;;;;;;;;;;;3.51;100.00;97713.59;4945986;29;19923;-82
2022/03/31 17:36:11;;;;;;;;;;;;;;;3.48;100.00;97720.72;4943842;29;19961;-83
2022/03/31 17:38:37;;;;;;;;;;;;;;;3.52;100.00;97725.75;4942883;29;20322;-82
2022/03/31 17:41:02;;;;;;;;;;;;;;;3.47;100.00;97727.75;4945918;29;19919;-83
2022/03/31 17:43:27;;;;;;;;;;;;;;;3.45;100.00;97733.06;4943447;28;20355;-84
2022/03/31 17:45:55;;;;;;;;;;;;;;;3.49;100.00;97735.53;4944085;28;20430;-83
2022/03/31 17:48:20;;;;;;;;;;;;;;;3.43;99.69;97741.88;4944197;29;19933;-85
2022/03/31 17:50:46;;;;;;;;;;;;;;;3.38;99.48;97744.75;4943521;29;19997;-83
2022/03/31 17:53:12;;;;;;;;;;;;;;;3.36;99.26;97750.97;4944055;29;19922;-82
2022/03/31 17:55:40;;;;;;;;;;;;;;;3.38;98.90;97749.97;4943269;29;19931;-83
2022/03/31 17:58:06;;;;;;;;;;;;;;;3.38;98.75;97755.22;4943906;29;19977;-84
2022/03/31 18:00:31;;;;;;;;;;;;;;;3.39;98.84;97759.50;4943172;29;19926;-83
2022/03/31 18:02:57;;;;;;;;;;;;;;;3.42;98.43;97762.00;4944892;29;20017;-83
2022/03/31 18:05:23;;;;;;;;;;;;;;;3.34;98.25;97764.13;4942899;29;19923;-83
2022/03/31 18:07:51;;;;;;;;;;;;;;;3.36;98.07;97764.88;4943206;29;19935;-82
2022/03/31 18:10:17;;;;;;;;;;;;;;;3.39;97.72;97769.16;4945194;28;20385;-82
2022/03/31 18:12:43;;;;;;;;;;;;;;;3.33;97.53;97775.50;4941138;29;19927;-83
2022/03/31 18:15:12;;;;;;;;;;;;;;;3.33;97.41;97780.75;4944562;29;20449;-83
2022/03/31 18:17:37;;;;;;;;;;;;;;;3.29;97.37;97784.44;4942252;29;19978;-84
2022/03/31 18:20:05;;;;;;;;;;;;;;;3.28;97.19;97780.94;4943583;29;20353;-82
2022/03/31 18:22:30;;;;;;;;;;;;;;;3.31;96.96;97779.13;4944816;28;19989;-84
2022/03/31 18:24:56;;;;;;;;;;;;;;;3.24;96.87;97778.56;4937960;29;19922;-83
2022/03/31 18:27:22;;;;;;;;;;;;;;;3.26;96.82;97793.25;4943485;29;19941;-82
2022/03/31 18:35:15;;;;;;;;;;;;;;;3.18;95.98;97794.53;4940747;29;20022;-81
2022/03/31 18:37:40;;;;;;;;;;;;;;;3.18;95.83;97802.38;4943559;29;20029;-82
2022/03/31 18:40:07;;;;;;;;;;;;;;;3.19;95.79;97806.69;4943010;29;19933;-83
2022/03/31 18:42:33;;;;;;;;;;;;;;;3.18;95.76;97810.25;4941820;29;19950;-82
2022/03/31 18:44:58;;;;;;;;;;;;;;;3.20;95.50;97816.25;4944181;28;19927;-81
2022/03/31 18:47:25;;;;;;;;;;;;;;;3.18;95.42;97820.72;4942635;29;20009;-84
2022/03/31 18:49:52;;;;;;;;;;;;;;;3.18;95.26;97825.94;4943137;29;20251;-82
2022/03/31 18:52:17;;;;;;;;;;;;;;;3.21;95.20;97817.97;4941912;29;20366;-83
2022/03/31 18:54:43;;;;;;;;;;;;;;;3.21;95.10;97825.81;4940629;28;19934;-83
2022/03/31 18:57:08;;;;;;;;;;;;;;;3.14;95.06;97809.50;4937071;29;19918;-82
2022/03/31 18:59:33;;;;;;;;;;;;;;;3.19;95.03;97827.63;4941614;29;19923;-84
2022/03/31 19:01:59;;;;;;;;;;;;;;;3.15;94.56;97826.06;4926513;29;19930;-84
2022/03/31 19:04:25;;;;;;;;;;;;;;;3.17;94.48;97834.69;4942766;29;20013;-82
2022/03/31 19:07:04;;;;;;;;;;;;;;;3.15;94.38;97831.31;4940539;28;20279;-84
2022/03/31 19:09:32;;;;;;;;;;;;;;;3.12;94.10;97831.44;4941902;29;20009;-82
2022/03/31 19:11:57;;;;;;;;;;;;;;;3.15;93.93;97836.53;4940551;29;20051;-81
2022/03/31 19:14:23;;;;;;;;;;;;;;;3.17;93.91;97839.94;4939756;29;20073;-84
2022/03/31 19:16:51;;;;;;;;;;;;;;;3.19;93.65;97841.59;4941648;29;20289;-83
2022/03/31 19:19:17;;;;;;;;;;;;;;;3.20;93.36;97839.81;4942789;29;19929;-84
2022/03/31 19:21:42;;;;;;;;;;;;;;;3.15;93.12;97841.78;4938267;29;19922;-85
2022/03/31 19:24:08;;;;;;;;;;;;;;;3.15;93.02;97845.25;4942707;29;19949;-84
2022/03/31 19:26:34;;;;;;;;;;;;;;;3.17;92.57;97843.41;4937008;29;19923;-83
2022/03/31 19:29:00;;;;;;;;;;;;;;;3.22;93.13;97835.34;4937718;29;19923;-83
2022/03/31 19:31:25;;;;;;;;;;;;;;;3.50;95.88;97842.00;4940473;28;19941;-84
2022/03/31 19:33:50;;;;;;;;;;;;;;;3.55;97.82;97838.22;4938867;29;19951;-85
2022/03/31 19:36:17;;;;;;;;;;;;;;;3.50;98.98;97839.38;4940043;29;20382;-82
2022/03/31 19:38:42;;;;;;;;;;;;;;;3.43;99.64;97846.63;4938382;29;20286;-82
2022/03/31 19:41:10;;;;;;;;;;;;;;;3.42;99.68;97844.94;4940790;29;19933;-85
2022/03/31 19:43:39;;;;;;;;;;;;;;;3.37;99.59;97852.16;4940119;29;19927;-83
2022/03/31 19:46:06;;;;;;;;;;;;;;;3.33;99.46;97846.19;4941694;28;19998;-84